createdAt,value
2022-12-11T00:00:23.843Z,99133.88
2022-12-11T00:03:15.604Z,99358.94
2022-12-11T00:05:56.384Z,99287.19
2022-12-11T00:08:43.746Z,99298.25
2022-12-11T00:11:24.409Z,99271.13
2022-12-11T00:13:51.328Z,99243.13
2022-12-11T00:16:22.452Z,99146.81
2022-12-11T00:18:52.225Z,99357.75
2022-12-11T00:21:19.210Z,99339.22
2022-12-11T00:23:46.163Z,99288.81
2022-12-11T00:26:15.544Z,99330.38
2022-12-11T00:29:06.733Z,99325.97
2022-12-11T00:31:47.303Z,99291.09
2022-12-11T00:34:34.738Z,99343.53
2022-12-11T00:37:35.812Z,99301.13
2022-12-11T00:40:16.541Z,99309.78
2022-12-11T00:43:03.739Z,99295.41
2022-12-11T00:45:48.039Z,99347.50
2022-12-11T00:48:14.947Z,99351.03
2022-12-11T00:50:42.129Z,99356.34
2022-12-11T00:53:17.460Z,99327.50
2022-12-11T00:55:44.531Z,99364.03
2022-12-11T00:58:12.225Z,99293.41
2022-12-11T01:00:41.331Z,99365.22
2022-12-11T01:03:09.884Z,99240.25
2022-12-11T01:05:37.255Z,99345.63
2022-12-11T01:08:24.860Z,99360.31
2022-12-11T01:11:07.995Z,99369.31
2022-12-11T01:13:54.795Z,99322.13
2022-12-11T01:16:35.440Z,99278.94
2022-12-11T01:19:03.322Z,99131.25
2022-12-11T01:21:50.767Z,99321.53
2022-12-11T01:24:31.320Z,99348.53
2022-12-11T01:26:58.312Z,99362.00
2022-12-11T01:29:25.353Z,99373.25
2022-12-11T01:31:52.393Z,99315.63
2022-12-11T01:34:19.343Z,99325.25
2022-12-11T01:36:46.282Z,99222.72
2022-12-11T01:39:13.233Z,99386.44
2022-12-11T01:42:00.779Z,99284.66
2022-12-11T01:45:01.789Z,99395.59
2022-12-11T01:47:42.524Z,99399.84
2022-12-11T01:50:09.529Z,99368.69
2022-12-11T01:53:00.826Z,99406.09
2022-12-11T01:55:42.142Z,99414.47
2022-12-11T01:58:10.925Z,99384.03
2022-12-11T02:00:38.099Z,99369.16
2022-12-11T02:03:05.129Z,99393.41
2022-12-11T02:05:32.204Z,99311.66
2022-12-11T02:08:20.831Z,99343.28
2022-12-11T02:11:12.143Z,99397.84
2022-12-11T02:13:39.004Z,99404.19
2022-12-11T02:16:21.961Z,99395.50
2022-12-11T02:19:00.551Z,99390.78
2022-12-11T02:21:40.270Z,99343.72
2022-12-11T02:24:45.810Z,99412.69
2022-12-11T02:27:35.908Z,99407.53
2022-12-11T02:30:06.539Z,99404.16
2022-12-11T02:32:47.684Z,99402.56
2022-12-11T02:35:23.024Z,99405.38
2022-12-11T02:38:22.791Z,99354.47
2022-12-11T02:41:25.893Z,99412.84
2022-12-11T02:44:07.235Z,99395.31
2022-12-11T02:46:35.638Z,99381.69
2022-12-11T02:49:05.903Z,99316.16
2022-12-11T02:51:39.118Z,99447.31
2022-12-11T02:54:10.738Z,99303.53
2022-12-11T02:57:06.823Z,99404.50
2022-12-11T03:00:07.852Z,99350.38
2022-12-11T03:02:48.752Z,99402.91
2022-12-11T03:05:15.865Z,99370.53
2022-12-11T03:08:02.922Z,99422.56
2022-12-11T03:10:44.874Z,99437.13
2022-12-11T03:13:13.736Z,99435.28
2022-12-11T03:15:55.912Z,99436.56
2022-12-11T03:18:53.304Z,99425.75
2022-12-11T03:21:57.832Z,99412.72
2022-12-11T03:24:38.319Z,99447.34
2022-12-11T03:27:17.581Z,99441.31
2022-12-11T03:29:59.474Z,99410.94
2022-12-11T03:32:34.209Z,99441.72
2022-12-11T03:35:46.878Z,99341.03
2022-12-11T03:38:46.444Z,99358.06
2022-12-11T03:41:36.880Z,99431.59
2022-12-11T03:44:20.693Z,99370.84
2022-12-11T03:46:50.611Z,99392.50
2022-12-11T03:49:22.913Z,99465.75
2022-12-11T03:51:52.242Z,99446.22
2022-12-11T03:54:19.810Z,99407.41
2022-12-11T03:56:48.760Z,99434.06
2022-12-11T03:59:15.851Z,99308.28
2022-12-11T04:01:43.082Z,99261.44
2022-12-11T04:04:10.277Z,99419.13
2022-12-11T04:06:58.976Z,99327.50
2022-12-11T04:09:59.975Z,99439.53
2022-12-11T04:12:40.475Z,99430.78
2022-12-11T04:15:07.945Z,99470.00
2022-12-11T04:17:55.640Z,99275.78
2022-12-11T04:20:41.150Z,99374.31
2022-12-11T04:23:32.188Z,99457.03
2022-12-11T04:26:27.922Z,99330.75
2022-12-11T04:29:26.050Z,99436.28
2022-12-11T04:31:53.049Z,99437.72
2022-12-11T04:34:20.310Z,99437.81
2022-12-11T04:36:47.165Z,99413.31
2022-12-11T04:39:14.169Z,99416.47
2022-12-11T04:42:00.933Z,99459.16
2022-12-11T04:44:41.771Z,99439.94
2022-12-11T04:47:28.960Z,99455.53
2022-12-11T04:50:11.897Z,99469.13
2022-12-11T04:52:39.147Z,99396.09
2022-12-11T04:55:07.546Z,99468.16
2022-12-11T04:57:35.103Z,99322.91
2022-12-11T05:00:04.721Z,99459.16
2022-12-11T05:02:35.359Z,99322.56
2022-12-11T05:05:04.770Z,99382.97
2022-12-11T05:07:51.961Z,99441.16
2022-12-11T05:10:52.993Z,99426.22
2022-12-11T05:13:34.841Z,99467.81
2022-12-11T05:16:05.492Z,99481.09
2022-12-11T05:18:32.794Z,99486.81
2022-12-11T05:21:06.115Z,99468.25
2022-12-11T05:23:34.339Z,99447.56
2022-12-11T05:26:05.298Z,99488.91
2022-12-11T05:28:35.717Z,99481.34
2022-12-11T05:31:06.205Z,99484.69
2022-12-11T05:33:52.956Z,99421.22
2022-12-11T05:36:34.921Z,99496.00
2022-12-11T05:39:02.356Z,99437.38
2022-12-11T05:41:49.913Z,99413.91
2022-12-11T05:44:51.147Z,99399.38
2022-12-11T05:47:31.838Z,99478.59
2022-12-11T05:49:59.195Z,99381.06
2022-12-11T05:52:27.352Z,99482.69
2022-12-11T05:54:54.419Z,99481.47
2022-12-11T05:57:21.241Z,99378.09
2022-12-11T05:59:48.175Z,99424.84
2022-12-11T06:02:15.348Z,99470.00
2022-12-11T06:04:42.430Z,99313.19
2022-12-11T06:07:29.938Z,99475.78
2022-12-11T06:10:11.454Z,99419.47
2022-12-11T06:12:38.635Z,99421.88
2022-12-11T06:15:06.330Z,99437.09
2022-12-11T06:17:34.315Z,99366.59
2022-12-11T06:20:20.961Z,99511.34
2022-12-11T06:23:21.948Z,99486.28
2022-12-11T06:26:04.128Z,99436.88
2022-12-11T06:28:50.948Z,99369.00
2022-12-11T06:31:52.080Z,99518.34
2022-12-11T06:34:32.569Z,99467.25
2022-12-11T06:36:59.650Z,99503.59
2022-12-11T06:39:26.641Z,99386.94
2022-12-11T06:42:13.961Z,99461.13
2022-12-11T06:44:55.183Z,99538.53
2022-12-11T06:47:22.192Z,99501.84
2022-12-11T06:49:49.274Z,99353.78
2022-12-11T06:52:18.606Z,99463.03
2022-12-11T06:54:45.939Z,99527.38
2022-12-11T06:57:12.998Z,99533.31
2022-12-11T06:59:39.979Z,99551.41
2022-12-11T07:02:07.541Z,99542.00
2022-12-11T07:04:56.530Z,99566.97
2022-12-11T07:07:57.631Z,99564.94
2022-12-11T07:10:37.560Z,99572.31
2022-12-11T07:13:04.679Z,99544.50
2022-12-11T07:15:32.374Z,99507.16
2022-12-11T07:18:00.507Z,99467.41
2022-12-11T07:20:27.523Z,99536.59
2022-12-11T07:22:54.817Z,99590.44
2022-12-11T07:25:21.754Z,99559.69
2022-12-11T07:27:48.703Z,99490.28
2022-12-11T07:30:15.714Z,99596.03
2022-12-11T07:32:42.727Z,99581.84
2022-12-11T07:35:10.326Z,99600.78
2022-12-11T07:37:40.587Z,99375.75
2022-12-11T07:40:08.232Z,99597.34
2022-12-11T07:42:35.446Z,99610.47
2022-12-11T07:45:02.603Z,99528.28
2022-12-11T07:47:30.481Z,99580.72
2022-12-11T07:50:18.004Z,99628.97
2022-12-11T07:53:18.985Z,99622.22
2022-12-11T07:56:00.117Z,99626.91
2022-12-11T07:58:27.983Z,99576.38
2022-12-11T08:00:55.066Z,99477.50
2022-12-11T08:03:22.179Z,99565.44
2022-12-11T08:05:50.326Z,99614.50
2022-12-11T08:08:37.014Z,99659.72
2022-12-11T08:11:17.622Z,99676.06
2022-12-11T08:13:44.868Z,99486.63
2022-12-11T08:16:15.002Z,99678.09
2022-12-11T08:18:44.328Z,99646.59
2022-12-11T08:21:14.020Z,99508.00
2022-12-11T08:23:41.481Z,99703.13
2022-12-11T08:26:12.678Z,99675.84
2022-12-11T08:29:00.080Z,99690.00
2022-12-11T08:31:41.672Z,99395.72
2022-12-11T08:34:08.790Z,99656.13
2022-12-11T08:36:56.028Z,99629.13
2022-12-11T08:39:36.781Z,99662.06
2022-12-11T08:42:03.740Z,99690.66
2022-12-11T08:44:31.053Z,99703.56
2022-12-11T08:46:57.988Z,99701.22
2022-12-11T08:49:45.084Z,99610.97
2022-12-11T08:52:48.011Z,99679.16
2022-12-11T08:55:49.127Z,99658.66
2022-12-11T08:58:29.854Z,99635.19
2022-12-11T09:00:57.804Z,99719.84
2022-12-11T09:03:25.181Z,99751.41
2022-12-11T09:05:52.094Z,99736.09
2022-12-11T09:08:39.000Z,99706.78
2022-12-11T09:11:27.571Z,99725.53
2022-12-11T09:13:55.118Z,99735.28
2022-12-11T09:16:25.050Z,99732.03
2022-12-11T09:18:54.155Z,99649.31
2022-12-11T09:21:43.007Z,99704.13
2022-12-11T09:24:33.780Z,99672.28
2022-12-11T09:27:00.863Z,99584.34
2022-12-11T09:29:28.081Z,99571.94
2022-12-11T09:31:55.245Z,99647.59
2022-12-11T09:34:28.703Z,99767.59
2022-12-11T09:36:56.119Z,99770.53
2022-12-11T09:39:23.230Z,99637.06
2022-12-11T09:41:53.154Z,99741.47
2022-12-11T09:44:47.075Z,99743.47
2022-12-11T09:47:38.777Z,99768.13
2022-12-11T09:50:46.034Z,99770.53
2022-12-11T09:53:35.534Z,99686.50
2022-12-11T09:56:39.079Z,99726.50
2022-12-11T10:00:04.183Z,99749.63
2022-12-11T10:03:28.056Z,99761.19
2022-12-11T10:06:47.066Z,99720.41
2022-12-11T10:10:12.368Z,99765.00
2022-12-11T10:13:10.133Z,99750.47
2022-12-11T10:15:43.815Z,99760.44
2022-12-11T10:18:15.990Z,99459.13
2022-12-11T10:20:45.183Z,99486.72
2022-12-11T10:23:21.796Z,99728.63
2022-12-11T10:25:58.183Z,99756.53
2022-12-11T10:28:28.170Z,99737.13
2022-12-11T10:31:04.181Z,99769.84
2022-12-11T10:33:50.210Z,99723.44
2022-12-11T10:36:26.512Z,99762.06
2022-12-11T10:38:53.600Z,99739.19
2022-12-11T10:41:24.709Z,99699.88
2022-12-11T10:43:53.650Z,99656.53
2022-12-11T10:46:20.775Z,99759.16
2022-12-11T10:49:11.084Z,99667.34
2022-12-11T10:51:54.320Z,99731.09
2022-12-11T10:54:46.070Z,99758.44
2022-12-11T10:57:52.078Z,99725.28
2022-12-11T11:00:40.687Z,99763.81
2022-12-11T11:03:25.943Z,99697.91
2022-12-11T11:06:27.080Z,99730.53
2022-12-11T11:09:49.095Z,99763.16
2022-12-11T11:12:40.732Z,99755.63
2022-12-11T11:15:13.994Z,99754.41
2022-12-11T11:17:54.690Z,99752.50
2022-12-11T11:20:26.607Z,99759.16
2022-12-11T11:22:59.364Z,99771.31
2022-12-11T11:25:30.053Z,99774.47
2022-12-11T11:28:29.076Z,99747.22
2022-12-11T11:31:32.136Z,99654.88
2022-12-11T11:34:21.130Z,99748.91
2022-12-11T11:37:01.097Z,99745.94
2022-12-11T11:39:45.124Z,99692.44
2022-12-11T11:42:30.226Z,99733.69
2022-12-11T11:45:09.936Z,99765.19
2022-12-11T11:47:48.853Z,99716.75
2022-12-11T11:50:41.098Z,99749.72
2022-12-11T11:53:33.080Z,99587.63
2022-12-11T11:56:06.087Z,99753.91
2022-12-11T11:58:45.725Z,99750.66
2022-12-11T12:01:34.099Z,99743.41
2022-12-11T12:04:35.102Z,99740.69
2022-12-11T12:08:05.126Z,99753.09
2022-12-11T12:11:14.178Z,99668.06
2022-12-11T12:13:50.652Z,99760.25
2022-12-11T12:16:56.379Z,99741.69
2022-12-11T12:19:29.503Z,99750.75
2022-12-11T12:22:00.898Z,99749.44
2022-12-11T12:24:43.023Z,99752.22
2022-12-11T12:27:57.836Z,99757.19
2022-12-11T12:30:24.790Z,99649.09
2022-12-11T12:33:25.821Z,99695.28
2022-12-11T12:36:19.217Z,99760.69
2022-12-11T12:39:20.470Z,99691.63
2022-12-11T12:42:24.150Z,99759.53
2022-12-11T12:45:28.599Z,99771.34
2022-12-11T12:48:30.256Z,99729.91
2022-12-11T12:51:28.792Z,99613.88
2022-12-11T12:54:09.091Z,99697.13
2022-12-11T12:56:40.752Z,99764.50
2022-12-11T12:59:20.777Z,99646.63
2022-12-11T13:02:16.176Z,99712.47
2022-12-11T13:05:25.341Z,99709.50
2022-12-11T13:08:18.158Z,99762.50
2022-12-11T13:11:11.555Z,99593.31
2022-12-11T13:13:41.257Z,99775.63
2022-12-11T13:16:35.429Z,99786.66
2022-12-11T13:19:42.381Z,99697.78
2022-12-11T13:22:27.575Z,99635.84
2022-12-11T13:25:01.841Z,99674.31
2022-12-11T13:27:31.999Z,99785.09
2022-12-11T13:30:29.151Z,99783.22
2022-12-11T13:33:19.172Z,99791.03
2022-12-11T13:35:46.322Z,99752.66
2022-12-11T13:38:21.089Z,99744.25
2022-12-11T13:40:54.602Z,99775.47
2022-12-11T13:43:31.161Z,99782.56
2022-12-11T13:46:01.947Z,99786.47
2022-12-11T13:48:54.242Z,99787.25
2022-12-11T13:52:12.128Z,99791.19
2022-12-11T13:54:55.665Z,99789.81
2022-12-11T13:57:26.315Z,99798.03
2022-12-11T13:59:55.678Z,99799.03
2022-12-11T14:02:35.506Z,99796.16
2022-12-11T14:05:07.422Z,99627.84
2022-12-11T14:08:04.244Z,99787.53
2022-12-11T14:11:07.212Z,99761.91
2022-12-11T14:13:48.210Z,99801.13
2022-12-11T14:16:22.909Z,99755.97
2022-12-11T14:18:54.819Z,99756.59
2022-12-11T14:21:26.253Z,99662.41
2022-12-11T14:23:56.262Z,99787.00
2022-12-11T14:26:28.917Z,99664.38
2022-12-11T14:28:56.240Z,99773.38
2022-12-11T14:31:49.693Z,99597.00
2022-12-11T14:34:22.579Z,99840.03
2022-12-11T14:36:55.588Z,99631.81
2022-12-11T14:39:34.741Z,99829.19
2022-12-11T14:42:10.027Z,99823.63
2022-12-11T14:44:53.028Z,99557.69
2022-12-11T14:47:27.556Z,99752.59
2022-12-11T14:50:22.207Z,99834.63
2022-12-11T14:53:33.201Z,99797.56
2022-12-11T14:56:41.221Z,99803.00
2022-12-11T14:59:28.541Z,99781.53
2022-12-11T15:02:37.224Z,99782.28
2022-12-11T15:05:40.981Z,99535.00
2022-12-11T15:08:48.220Z,99638.19
2022-12-11T15:11:49.504Z,99817.66
2022-12-11T15:14:33.635Z,99727.31
2022-12-11T15:17:28.247Z,99837.81
2022-12-11T15:20:20.568Z,99838.31
2022-12-11T15:23:08.246Z,99709.41
2022-12-11T15:25:58.224Z,99840.66
2022-12-11T15:28:37.556Z,99824.56
2022-12-11T15:31:08.045Z,99755.41
2022-12-11T15:33:46.156Z,99853.34
2022-12-11T15:36:26.754Z,99847.47
2022-12-11T15:38:53.861Z,99852.13
2022-12-11T15:41:21.633Z,99826.16
2022-12-11T15:43:51.733Z,99728.78
2022-12-11T15:46:21.068Z,99781.16
2022-12-11T15:49:03.211Z,99836.47
2022-12-11T15:52:04.205Z,99834.56
2022-12-11T15:55:05.225Z,99866.34
2022-12-11T15:57:55.449Z,99852.16
2022-12-11T16:00:24.186Z,99865.38
2022-12-11T16:02:52.212Z,99797.56
2022-12-11T16:05:20.341Z,99875.91
2022-12-11T16:08:07.277Z,99847.94
2022-12-11T16:10:49.394Z,99819.66
2022-12-11T16:13:16.619Z,99869.94
2022-12-11T16:15:46.155Z,99887.84
2022-12-11T16:18:16.378Z,99877.78
2022-12-11T16:20:45.106Z,99869.09
2022-12-11T16:23:14.783Z,99867.59
2022-12-11T16:25:42.688Z,99765.66
2022-12-11T16:28:12.242Z,99893.41
2022-12-11T16:30:52.336Z,99827.34
2022-12-11T16:33:33.009Z,99788.78
2022-12-11T16:35:59.934Z,99863.28
2022-12-11T16:38:27.146Z,99875.09
2022-12-11T16:41:01.991Z,99862.66
2022-12-11T16:43:29.048Z,99903.94
2022-12-11T16:45:56.143Z,99859.09
2022-12-11T16:48:43.600Z,99857.66
2022-12-11T16:51:24.364Z,99870.09
2022-12-11T16:53:51.800Z,99887.44
2022-12-11T16:56:18.972Z,99904.50
2022-12-11T16:58:47.729Z,99886.06
2022-12-11T17:01:35.291Z,99671.00
2022-12-11T17:04:36.263Z,99919.03
2022-12-11T17:07:37.279Z,99884.69
2022-12-11T17:10:17.989Z,99886.63
2022-12-11T17:12:44.894Z,99853.66
2022-12-11T17:15:12.191Z,99878.22
2022-12-11T17:17:39.353Z,99818.41
2022-12-11T17:20:06.908Z,99912.94
2022-12-11T17:22:35.033Z,99757.97
2022-12-11T17:25:02.114Z,99875.53
2022-12-11T17:27:29.060Z,99906.34
2022-12-11T17:29:56.124Z,99849.72
2022-12-11T17:32:23.018Z,99799.72
2022-12-11T17:34:50.551Z,99879.53
2022-12-11T17:37:18.721Z,99735.41
2022-12-11T17:39:47.297Z,99677.38
2022-12-11T17:42:14.332Z,99940.22
2022-12-11T17:44:41.312Z,99900.94
2022-12-11T17:47:11.179Z,99786.09
2022-12-11T17:49:58.288Z,99769.03
2022-12-11T17:52:59.261Z,99903.19
2022-12-11T17:56:01.372Z,99933.72
2022-12-11T17:58:41.995Z,99870.63
2022-12-11T18:01:10.246Z,99778.28
2022-12-11T18:03:38.174Z,99913.22
2022-12-11T18:06:27.340Z,99935.78
2022-12-11T18:09:28.295Z,99891.66
2022-12-11T18:12:29.287Z,99905.78
2022-12-11T18:15:30.285Z,99896.63
2022-12-11T18:18:11.291Z,99950.41
2022-12-11T18:20:49.028Z,99932.84
2022-12-11T18:23:16.079Z,99840.34
2022-12-11T18:25:42.998Z,99913.94
2022-12-11T18:28:09.948Z,99972.72
2022-12-11T18:30:37.121Z,99928.22
2022-12-11T18:33:04.101Z,99970.13
2022-12-11T18:35:31.954Z,99976.44
2022-12-11T18:37:58.890Z,99921.44
2022-12-11T18:40:25.833Z,99953.94
2022-12-11T18:42:52.774Z,99785.25
2022-12-11T18:45:20.661Z,100004.41
2022-12-11T18:47:47.697Z,99917.31
2022-12-11T18:50:35.565Z,99949.50
2022-12-11T18:53:25.888Z,99939.63
2022-12-11T18:55:58.604Z,100006.34
2022-12-11T18:58:27.522Z,99973.69
2022-12-11T19:00:54.531Z,99996.69
2022-12-11T19:03:41.310Z,100002.97
2022-12-11T19:06:43.321Z,99997.78
2022-12-11T19:09:48.109Z,99997.41
2022-12-11T19:12:36.313Z,99949.81
2022-12-11T19:15:03.715Z,100013.91
2022-12-11T19:17:30.749Z,100022.81
2022-12-11T19:19:57.875Z,100021.63
2022-12-11T19:22:45.466Z,100039.25
2022-12-11T19:25:43.919Z,100041.13
2022-12-11T19:28:11.179Z,99989.59
2022-12-11T19:30:46.813Z,99920.09
2022-12-11T19:33:14.221Z,99968.84
2022-12-11T19:35:41.441Z,100044.78
2022-12-11T19:38:08.743Z,100052.78
2022-12-11T19:40:56.310Z,100032.97
2022-12-11T19:43:36.935Z,100043.03
2022-12-11T19:46:06.616Z,100057.50
2022-12-11T19:48:37.382Z,100033.84
2022-12-11T19:51:09.992Z,100058.84
2022-12-11T19:53:37.827Z,100054.28
2022-12-11T19:56:05.957Z,100000.66
2022-12-11T19:58:33.482Z,100026.06
2022-12-11T20:01:01.474Z,100027.19
2022-12-11T20:03:50.421Z,99872.91
2022-12-11T20:06:53.397Z,100081.16
2022-12-11T20:09:34.323Z,99972.38
2022-12-11T20:12:03.177Z,100095.63
2022-12-11T20:14:30.180Z,100095.03
2022-12-11T20:17:14.866Z,100072.53
2022-12-11T20:19:42.762Z,100116.56
2022-12-11T20:22:10.108Z,100105.19
2022-12-11T20:24:57.403Z,100071.56
2022-12-11T20:27:58.443Z,100075.13
2022-12-11T20:30:50.952Z,100081.63
2022-12-11T20:33:18.464Z,100143.41
2022-12-11T20:35:46.165Z,100071.00
2022-12-11T20:38:13.283Z,100137.94
2022-12-11T20:40:40.312Z,100055.50
2022-12-11T20:43:07.295Z,100058.31
2022-12-11T20:45:34.542Z,100144.66
2022-12-11T20:48:01.585Z,99906.63
2022-12-11T20:50:28.959Z,100138.50
2022-12-11T20:52:55.848Z,100064.19
2022-12-11T20:55:43.404Z,100140.13
2022-12-11T20:58:24.371Z,100095.03
2022-12-11T21:00:51.832Z,100081.66
2022-12-11T21:03:18.994Z,100167.72
2022-12-11T21:05:46.937Z,100153.28
2022-12-11T21:08:34.447Z,100076.44
2022-12-11T21:11:35.502Z,100089.72
2022-12-11T21:14:17.171Z,100159.19
2022-12-11T21:16:45.076Z,100104.81
2022-12-11T21:19:16.652Z,100161.94
2022-12-11T21:21:45.773Z,100107.03
2022-12-11T21:24:20.729Z,100097.56
2022-12-11T21:26:48.773Z,100158.41
2022-12-11T21:29:16.450Z,100139.81
2022-12-11T21:31:43.957Z,100045.03
2022-12-11T21:34:11.069Z,100134.34
2022-12-11T21:36:38.169Z,100159.09
2022-12-11T21:39:05.299Z,100121.88
2022-12-11T21:41:32.880Z,100116.94
2022-12-11T21:46:47.175Z,100042.75
2022-12-11T21:49:14.153Z,100116.44
2022-12-11T21:52:01.412Z,100043.16
2022-12-11T21:55:03.446Z,100057.50
2022-12-11T21:57:43.961Z,100135.53
2022-12-11T22:00:11.457Z,100106.00
2022-12-11T22:03:02.414Z,100106.75
2022-12-11T22:05:43.012Z,100147.81
2022-12-11T22:08:30.493Z,100163.81
2022-12-11T22:11:11.165Z,100166.41
2022-12-11T22:13:38.214Z,100143.44
2022-12-11T22:16:05.534Z,100041.88
2022-12-11T22:18:32.474Z,100069.41
2022-12-11T22:20:59.654Z,100189.38
2022-12-11T22:23:27.205Z,100171.03
2022-12-11T22:25:54.508Z,100184.47
2022-12-11T22:28:21.642Z,100102.47
2022-12-11T22:31:08.468Z,100124.81
2022-12-11T22:33:50.864Z,100174.06
2022-12-11T22:36:19.070Z,100174.31
2022-12-11T22:38:47.606Z,100180.00
2022-12-11T22:41:22.457Z,100177.06
2022-12-11T22:43:51.262Z,100012.97
2022-12-11T22:46:20.699Z,99998.78
2022-12-11T22:48:47.742Z,100126.13
2022-12-11T22:51:15.003Z,100135.81
2022-12-11T22:54:02.440Z,100181.00
2022-12-11T22:57:03.462Z,100196.00
2022-12-11T23:00:04.440Z,100149.69
2022-12-11T23:03:04.465Z,100153.41
2022-12-11T23:05:31.464Z,100187.84
2022-12-11T23:08:18.558Z,100163.59
2022-12-11T23:10:59.146Z,100190.84
2022-12-11T23:13:26.080Z,100092.00
2022-12-11T23:15:53.018Z,100115.63
2022-12-11T23:18:19.897Z,99986.78
2022-12-11T23:20:46.944Z,100141.31
2022-12-11T23:23:14.232Z,100188.19
2022-12-11T23:25:41.112Z,100040.28
2022-12-11T23:28:08.073Z,100201.97
2022-12-11T23:30:35.204Z,100167.03
2022-12-11T23:33:22.458Z,100156.91
2022-12-11T23:36:04.156Z,100172.00
2022-12-11T23:38:32.285Z,100171.75
2022-12-11T23:41:03.680Z,100205.09
2022-12-11T23:43:31.484Z,100143.63
2022-12-11T23:45:58.510Z,100160.78
2022-12-11T23:48:25.722Z,100060.94
2022-12-11T23:50:52.735Z,100021.91
2022-12-11T23:53:19.727Z,100196.19
2022-12-11T23:56:08.479Z,100188.38
2022-12-11T23:59:02.546Z,100180.00
